sensor_id;sensor_type;location;lat;lon;timestamp;pressure;altitude;pressure_sealevel;temperature;humidity
73016;BME280;61893;50.074;14.440;2023-04-21T00:16:48;98417.56;;;7.62;91.97
73016;BME280;61893;50.074;14.440;2023-04-21T00:19:49;98417.00;;;7.59;91.91
73016;BME280;61893;50.074;14.440;2023-04-21T00:22:16;98417.53;;;7.53;92.54
73016;BME280;61893;50.074;14.440;2023-04-21T00:24:45;98420.03;;;7.54;92.54
73016;BME280;61893;50.074;14.440;2023-04-21T00:29:38;98416.41;;;7.45;92.64
73016;BME280;61893;50.074;14.440;2023-04-21T00:32:06;98420.03;;;7.44;92.88
73016;BME280;61893;50.074;14.440;2023-04-21T00:34:41;98418.66;;;7.50;92.81
73016;BME280;61893;50.074;14.440;2023-04-21T00:37:11;98422.53;;;7.46;92.60
73016;BME280;61893;50.074;14.440;2023-04-21T00:39:46;98417.94;;;7.38;92.71
73016;BME280;61893;50.074;14.440;2023-04-21T00:42:15;98418.22;;;7.45;92.68
73016;BME280;61893;50.074;14.440;2023-04-21T00:44:42;98421.13;;;7.42;92.73
73016;BME280;61893;50.074;14.440;2023-04-21T00:47:08;98416.13;;;7.49;93.07
73016;BME280;61893;50.074;14.440;2023-04-21T00:49:43;98416.28;;;7.47;92.64
73016;BME280;61893;50.074;14.440;2023-04-21T00:52:34;98417.22;;;7.46;92.50
73016;BME280;61893;50.074;14.440;2023-04-21T00:55:12;98414.56;;;7.36;93.25
73016;BME280;61893;50.074;14.440;2023-04-21T00:58:22;98425.16;;;7.36;93.42
73016;BME280;61893;50.074;14.440;2023-04-21T01:01:08;98420.41;;;7.40;92.88
73016;BME280;61893;50.074;14.440;2023-04-21T01:03:36;98412.31;;;7.32;93.03
73016;BME280;61893;50.074;14.440;2023-04-21T01:06:02;98415.28;;;7.38;92.75
73016;BME280;61893;50.074;14.440;2023-04-21T01:08:30;98413.28;;;7.31;93.29
73016;BME280;61893;50.074;14.440;2023-04-21T01:11:11;98419.03;;;7.36;93.19
73016;BME280;61893;50.074;14.440;2023-04-21T01:13:58;98413.13;;;7.22;93.38
73016;BME280;61893;50.074;14.440;2023-04-21T01:16:36;98413.56;;;7.28;93.47
73016;BME280;61893;50.074;14.440;2023-04-21T01:19:05;98402.72;;;7.31;93.50
73016;BME280;61893;50.074;14.440;2023-04-21T01:21:40;98404.75;;;7.17;94.02
73016;BME280;61893;50.074;14.440;2023-04-21T01:24:10;98406.81;;;7.14;94.45
73016;BME280;61893;50.074;14.440;2023-04-21T01:27:00;98401.94;;;7.09;94.15
73016;BME280;61893;50.074;14.440;2023-04-21T01:30:11;98398.31;;;7.10;94.67
73016;BME280;61893;50.074;14.440;2023-04-21T01:33:02;98408.75;;;7.12;94.08
73016;BME280;61893;50.074;14.440;2023-04-21T01:35:51;98400.44;;;7.16;94.41
73016;BME280;61893;50.074;14.440;2023-04-21T01:38:46;98406.28;;;7.10;94.56
73016;BME280;61893;50.074;14.440;2023-04-21T01:42:08;98410.22;;;6.95;94.99
73016;BME280;61893;50.074;14.440;2023-04-21T01:45:04;98409.97;;;6.67;95.76
73016;BME280;61893;50.074;14.440;2023-04-21T01:47:58;98402.72;;;6.69;96.78
73016;BME280;61893;50.074;14.440;2023-04-21T01:50:50;98405.78;;;6.65;97.02
73016;BME280;61893;50.074;14.440;2023-04-21T01:53:33;98412.72;;;6.66;97.49
73016;BME280;61893;50.074;14.440;2023-04-21T01:59:00;98399.84;;;6.51;97.29
73016;BME280;61893;50.074;14.440;2023-04-21T02:01:27;98399.78;;;6.42;97.22
73016;BME280;61893;50.074;14.440;2023-04-21T02:03:54;98398.09;;;6.41;97.56
73016;BME280;61893;50.074;14.440;2023-04-21T02:06:25;98396.13;;;6.33;97.85
73016;BME280;61893;50.074;14.440;2023-04-21T02:08:56;98391.72;;;6.43;98.67
73016;BME280;61893;50.074;14.440;2023-04-21T02:11:24;98396.44;;;6.40;98.24
73016;BME280;61893;50.074;14.440;2023-04-21T02:13:54;98395.06;;;6.66;97.77
73016;BME280;61893;50.074;14.440;2023-04-21T02:16:21;98396.63;;;6.48;98.43
73016;BME280;61893;50.074;14.440;2023-04-21T02:18:54;98394.50;;;6.42;98.57
73016;BME280;61893;50.074;14.440;2023-04-21T02:21:33;98401.47;;;6.43;98.57
73016;BME280;61893;50.074;14.440;2023-04-21T02:24:00;98397.78;;;6.34;99.12
73016;BME280;61893;50.074;14.440;2023-04-21T02:26:26;98401.16;;;6.36;99.57
73016;BME280;61893;50.074;14.440;2023-04-21T02:31:33;98398.09;;;6.41;99.43
73016;BME280;61893;50.074;14.440;2023-04-21T02:34:55;98405.84;;;6.53;98.88
73016;BME280;61893;50.074;14.440;2023-04-21T02:37:47;98403.41;;;6.62;98.33
73016;BME280;61893;50.074;14.440;2023-04-21T02:40:54;98406.03;;;6.62;97.77
73016;BME280;61893;50.074;14.440;2023-04-21T02:43:53;98407.19;;;6.69;97.74
73016;BME280;61893;50.074;14.440;2023-04-21T02:46:39;98401.63;;;6.72;97.71
73016;BME280;61893;50.074;14.440;2023-04-21T02:49:55;98406.06;;;6.71;97.24
73016;BME280;61893;50.074;14.440;2023-04-21T02:52:52;98402.16;;;6.66;97.24
73016;BME280;61893;50.074;14.440;2023-04-21T02:55:27;98401.78;;;6.70;97.48
73016;BME280;61893;50.074;14.440;2023-04-21T02:58:19;98392.09;;;6.60;97.67
73016;BME280;61893;50.074;14.440;2023-04-21T03:02:06;98393.72;;;6.51;97.30
73016;BME280;61893;50.074;14.440;2023-04-21T03:05:11;98391.91;;;6.51;97.88
73016;BME280;61893;50.074;14.440;2023-04-21T03:08:19;98388.47;;;6.61;97.24
73016;BME280;61893;50.074;14.440;2023-04-21T03:11:31;98389.00;;;6.54;97.43
73016;BME280;61893;50.074;14.440;2023-04-21T03:14:37;98387.78;;;6.59;97.32
73016;BME280;61893;50.074;14.440;2023-04-21T03:17:50;98388.19;;;6.54;97.21
73016;BME280;61893;50.074;14.440;2023-04-21T03:21:02;98390.03;;;6.63;96.65
73016;BME280;61893;50.074;14.440;2023-04-21T03:24:14;98389.97;;;6.53;96.79
73016;BME280;61893;50.074;14.440;2023-04-21T03:27:42;98397.19;;;6.51;96.63
73016;BME280;61893;50.074;14.440;2023-04-21T03:31:18;98394.91;;;6.58;96.41
73016;BME280;61893;50.074;14.440;2023-04-21T03:34:58;98393.34;;;6.56;96.49
73016;BME280;61893;50.074;14.440;2023-04-21T03:38:11;98397.59;;;6.47;96.39
73016;BME280;61893;50.074;14.440;2023-04-21T03:41:32;98397.34;;;6.50;96.32
73016;BME280;61893;50.074;14.440;2023-04-21T03:44:05;98395.53;;;6.50;96.42
73016;BME280;61893;50.074;14.440;2023-04-21T03:49:17;98400.66;;;6.52;95.71
73016;BME280;61893;50.074;14.440;2023-04-21T03:51:43;98391.72;;;6.64;95.43
73016;BME280;61893;50.074;14.440;2023-04-21T03:54:10;98394.66;;;6.71;94.77
73016;BME280;61893;50.074;14.440;2023-04-21T03:56:36;98398.56;;;6.67;94.37
73016;BME280;61893;50.074;14.440;2023-04-21T03:59:03;98399.97;;;6.71;94.76
73016;BME280;61893;50.074;14.440;2023-04-21T04:01:30;98399.97;;;6.71;94.29
73016;BME280;61893;50.074;14.440;2023-04-21T04:04:11;98398.72;;;6.75;94.15
73016;BME280;61893;50.074;14.440;2023-04-21T04:06:54;98403.69;;;6.68;94.18
73016;BME280;61893;50.074;14.440;2023-04-21T04:10:10;98410.75;;;6.58;94.51
73016;BME280;61893;50.074;14.440;2023-04-21T04:14:10;98411.09;;;6.74;94.22
73016;BME280;61893;50.074;14.440;2023-04-21T04:17:15;98407.09;;;6.80;92.96
73016;BME280;61893;50.074;14.440;2023-04-21T04:20:20;98403.31;;;6.73;93.31
73016;BME280;61893;50.074;14.440;2023-04-21T04:23:35;98401.63;;;6.72;93.40
73016;BME280;61893;50.074;14.440;2023-04-21T04:26:43;98412.13;;;6.83;93.07
73016;BME280;61893;50.074;14.440;2023-04-21T04:29:26;98404.06;;;6.85;92.50
73016;BME280;61893;50.074;14.440;2023-04-21T04:32:27;98404.09;;;6.94;91.82
73016;BME280;61893;50.074;14.440;2023-04-21T04:35:40;98405.25;;;7.02;91.25
73016;BME280;61893;50.074;14.440;2023-04-21T04:39:02;98405.09;;;6.93;91.42
73016;BME280;61893;50.074;14.440;2023-04-21T04:42:14;98401.81;;;7.11;90.74
73016;BME280;61893;50.074;14.440;2023-04-21T04:45:55;98406.91;;;7.43;89.26
73016;BME280;61893;50.074;14.440;2023-04-21T04:48:38;98405.25;;;7.52;88.88
73016;BME280;61893;50.074;14.440;2023-04-21T04:52:31;98401.94;;;7.59;87.73
73016;BME280;61893;50.074;14.440;2023-04-21T04:55:31;98401.81;;;7.80;87.45
73016;BME280;61893;50.074;14.440;2023-04-21T04:58:32;98403.22;;;7.94;85.86
73016;BME280;61893;50.074;14.440;2023-04-21T05:01:16;98401.97;;;8.08;85.63
73016;BME280;61893;50.074;14.440;2023-04-21T05:03:59;98411.19;;;8.33;84.10
73016;BME280;61893;50.074;14.440;2023-04-21T05:06:28;98405.97;;;8.70;82.24
73016;BME280;61893;50.074;14.440;2023-04-21T05:08:55;98412.78;;;10.11;75.42
73016;BME280;61893;50.074;14.440;2023-04-21T05:11:55;98415.88;;;11.20;70.61
73016;BME280;61893;50.074;14.440;2023-04-21T05:14:23;98421.03;;;12.23;66.68
73016;BME280;61893;50.074;14.440;2023-04-21T05:16:49;98422.88;;;12.63;64.11
73016;BME280;61893;50.074;14.440;2023-04-21T05:19:15;98420.00;;;13.54;61.23
73016;BME280;61893;50.074;14.440;2023-04-21T05:21:41;98422.38;;;14.34;58.01
73016;BME280;61893;50.074;14.440;2023-04-21T05:24:07;98419.03;;;15.07;55.82
73016;BME280;61893;50.074;14.440;2023-04-21T05:26:34;98419.69;;;14.95;54.96
73016;BME280;61893;50.074;14.440;2023-04-21T05:29:13;98423.59;;;15.37;54.42
73016;BME280;61893;50.074;14.440;2023-04-21T05:31:46;98425.59;;;14.52;55.03
73016;BME280;61893;50.074;14.440;2023-04-21T05:35:10;98430.59;;;16.68;50.29
73016;BME280;61893;50.074;14.440;2023-04-21T05:38:13;98435.81;;;16.27;51.21
73016;BME280;61893;50.074;14.440;2023-04-21T05:46:08;98421.28;;;16.21;49.75
73016;BME280;61893;50.074;14.440;2023-04-21T05:49:00;98422.91;;;16.80;47.77
73016;BME280;61893;50.074;14.440;2023-04-21T05:51:39;98426.84;;;17.12;47.04
73016;BME280;61893;50.074;14.440;2023-04-21T06:04:09;98417.41;;;19.32;41.80
73016;BME280;61893;50.074;14.440;2023-04-21T06:06:37;98421.94;;;17.64;45.36
73016;BME280;61893;50.074;14.440;2023-04-21T06:09:05;98417.03;;;19.15;41.75
73016;BME280;61893;50.074;14.440;2023-04-21T06:11:34;98426.97;;;19.93;40.48
73016;BME280;61893;50.074;14.440;2023-04-21T06:14:08;98424.56;;;20.80;37.77
73016;BME280;61893;50.074;14.440;2023-04-21T06:16:47;98434.16;;;21.01;37.98
73016;BME280;61893;50.074;14.440;2023-04-21T06:19:19;98428.69;;;20.19;39.93
73016;BME280;61893;50.074;14.440;2023-04-21T06:22:11;98417.09;;;21.80;36.28
73016;BME280;61893;50.074;14.440;2023-04-21T06:35:15;98413.84;;;19.31;40.43
73016;BME280;61893;50.074;14.440;2023-04-21T06:39:11;98421.94;;;20.03;39.61
73016;BME280;61893;50.074;14.440;2023-04-21T06:47:08;98425.09;;;20.32;38.56
73016;BME280;61893;50.074;14.440;2023-04-21T06:49:51;98429.31;;;21.28;37.02
73016;BME280;61893;50.074;14.440;2023-04-21T06:52:19;98418.38;;;22.08;35.68
73016;BME280;61893;50.074;14.440;2023-04-21T06:55:04;98416.69;;;21.22;36.94
73016;BME280;61893;50.074;14.440;2023-04-21T07:02:50;98421.53;;;20.69;41.14
73016;BME280;61893;50.074;14.440;2023-04-21T07:05:16;98423.91;;;20.21;46.69
73016;BME280;61893;50.074;14.440;2023-04-21T07:07:42;98424.94;;;20.58;44.62
73016;BME280;61893;50.074;14.440;2023-04-21T07:10:08;98421.81;;;20.61;44.18
73016;BME280;61893;50.074;14.440;2023-04-21T07:12:34;98423.78;;;20.98;47.38
73016;BME280;61893;50.074;14.440;2023-04-21T07:15:00;98421.41;;;20.19;42.70
73016;BME280;61893;50.074;14.440;2023-04-21T07:44:37;98421.91;;;21.78;35.71
73016;BME280;61893;50.074;14.440;2023-04-21T07:47:25;98418.00;;;22.65;34.03
73016;BME280;61893;50.074;14.440;2023-04-21T07:50:13;98421.25;;;23.44;32.91
73016;BME280;61893;50.074;14.440;2023-04-21T07:53:09;98421.53;;;23.83;32.14
73016;BME280;61893;50.074;14.440;2023-04-21T07:55:51;98426.13;;;24.52;31.55
73016;BME280;61893;50.074;14.440;2023-04-21T07:58:38;98416.03;;;22.84;33.86
73016;BME280;61893;50.074;14.440;2023-04-21T08:07:02;98403.41;;;22.89;44.32
73016;BME280;61893;50.074;14.440;2023-04-21T08:09:29;98406.53;;;22.51;43.89
73016;BME280;61893;50.074;14.440;2023-04-21T08:11:54;98408.03;;;20.63;44.57
73016;BME280;61893;50.074;14.440;2023-04-21T08:14:22;98409.44;;;21.59;41.16
73016;BME280;61893;50.074;14.440;2023-04-21T08:16:48;98399.66;;;20.71;44.27
73016;BME280;61893;50.074;14.440;2023-04-21T08:19:14;98405.91;;;20.40;44.19
73016;BME280;61893;50.074;14.440;2023-04-21T08:45:23;98394.56;;;23.41;34.23
73016;BME280;61893;50.074;14.440;2023-04-21T08:48:52;98402.25;;;22.97;35.37
73016;BME280;61893;50.074;14.440;2023-04-21T08:51:45;98397.38;;;22.64;36.14
73016;BME280;61893;50.074;14.440;2023-04-21T08:54:41;98394.81;;;22.81;35.20
73016;BME280;61893;50.074;14.440;2023-04-21T08:57:22;98391.84;;;22.82;35.27
73016;BME280;61893;50.074;14.440;2023-04-21T08:59:50;98394.38;;;22.12;36.99
73016;BME280;61893;50.074;14.440;2023-04-21T09:02:24;98400.31;;;23.56;34.54
73016;BME280;61893;50.074;14.440;2023-04-21T09:05:38;98401.03;;;22.58;35.94
73016;BME280;61893;50.074;14.440;2023-04-21T09:08:28;98394.84;;;21.78;37.44
73016;BME280;61893;50.074;14.440;2023-04-21T09:15:19;98389.22;;;23.46;34.73
73016;BME280;61893;50.074;14.440;2023-04-21T09:18:00;98382.88;;;22.82;35.91
73016;BME280;61893;50.074;14.440;2023-04-21T09:23:16;98386.97;;;21.89;37.27
73016;BME280;61893;50.074;14.440;2023-04-21T09:25:53;98389.81;;;22.54;36.42
73016;BME280;61893;50.074;14.440;2023-04-21T09:28:46;98398.81;;;21.57;36.50
73016;BME280;61893;50.074;14.440;2023-04-21T09:31:54;98375.16;;;20.41;39.75
73016;BME280;61893;50.074;14.440;2023-04-21T09:35:26;98375.88;;;21.23;37.81
73016;BME280;61893;50.074;14.440;2023-04-21T09:41:16;98376.41;;;20.70;39.79
73016;BME280;61893;50.074;14.440;2023-04-21T09:43:56;98372.25;;;20.67;44.70
73016;BME280;61893;50.074;14.440;2023-04-21T09:46:35;98375.75;;;20.93;43.09
73016;BME280;61893;50.074;14.440;2023-04-21T09:49:15;98359.03;;;20.28;40.63
73016;BME280;61893;50.074;14.440;2023-04-21T09:52:03;98369.41;;;19.99;45.07
73016;BME280;61893;50.074;14.440;2023-04-21T09:54:31;98357.97;;;19.97;49.00
73016;BME280;61893;50.074;14.440;2023-04-21T09:56:59;98369.75;;;19.77;45.51
73016;BME280;61893;50.074;14.440;2023-04-21T09:59:39;98360.47;;;19.98;43.78
73016;BME280;61893;50.074;14.440;2023-04-21T10:02:10;98359.94;;;20.46;44.70
73016;BME280;61893;50.074;14.440;2023-04-21T10:04:40;98356.31;;;20.59;47.95
73016;BME280;61893;50.074;14.440;2023-04-21T10:07:09;98359.81;;;20.35;44.94
73016;BME280;61893;50.074;14.440;2023-04-21T10:09:42;98369.53;;;20.11;47.24
73016;BME280;61893;50.074;14.440;2023-04-21T10:12:13;98358.56;;;19.54;45.71
73016;BME280;61893;50.074;14.440;2023-04-21T14:43:58;98194.56;;;18.86;34.16
73016;BME280;61893;50.074;14.440;2023-04-21T14:59:01;98184.59;;;17.95;35.90
73016;BME280;61893;50.074;14.440;2023-04-21T15:13:52;98176.19;;;18.63;34.83
73016;BME280;61893;50.074;14.440;2023-04-21T15:31:17;98174.81;;;18.27;34.45
73016;BME280;61893;50.074;14.440;2023-04-21T15:52:53;98165.94;;;17.93;35.66
73016;BME280;61893;50.074;14.440;2023-04-21T17:29:18;98122.75;;;16.26;38.72
73016;BME280;61893;50.074;14.440;2023-04-21T18:18:18;98136.97;;;14.99;41.28
73016;BME280;61893;50.074;14.440;2023-04-21T18:21:33;98141.72;;;14.97;41.15
73016;BME280;61893;50.074;14.440;2023-04-21T19:55:30;98146.97;;;12.88;49.12
73016;BME280;61893;50.074;14.440;2023-04-21T20:44:58;98160.72;;;11.98;52.41
73016;BME280;61893;50.074;14.440;2023-04-21T20:51:03;98155.22;;;11.91;52.34
73016;BME280;61893;50.074;14.440;2023-04-21T21:39:39;98185.72;;;11.23;56.34
73016;BME280;61893;50.074;14.440;2023-04-21T21:42:08;98189.84;;;11.09;57.01
73016;BME280;61893;50.074;14.440;2023-04-21T21:47:34;98186.53;;;11.15;56.45
73016;BME280;61893;50.074;14.440;2023-04-21T21:53:29;98196.00;;;11.10;56.47
73016;BME280;61893;50.074;14.440;2023-04-21T21:56:17;98190.50;;;11.03;56.39
73016;BME280;61893;50.074;14.440;2023-04-21T22:05:04;98193.88;;;11.13;55.67
73016;BME280;61893;50.074;14.440;2023-04-21T22:07:31;98196.16;;;11.00;56.89
73016;BME280;61893;50.074;14.440;2023-04-21T22:09:56;98200.66;;;10.99;57.01
73016;BME280;61893;50.074;14.440;2023-04-21T22:12:26;98196.44;;;10.80;57.76
73016;BME280;61893;50.074;14.440;2023-04-21T22:14:52;98199.25;;;10.71;58.08
73016;BME280;61893;50.074;14.440;2023-04-21T22:17:18;98198.72;;;10.59;58.90
73016;BME280;61893;50.074;14.440;2023-04-21T22:19:44;98197.34;;;10.55;58.52
73016;BME280;61893;50.074;14.440;2023-04-21T22:22:10;98206.53;;;10.69;57.66
73016;BME280;61893;50.074;14.440;2023-04-21T22:24:37;98209.56;;;10.74;57.20
73016;BME280;61893;50.074;14.440;2023-04-21T22:27:03;98210.69;;;10.63;57.73
73016;BME280;61893;50.074;14.440;2023-04-21T22:29:29;98211.84;;;10.60;57.98
73016;BME280;61893;50.074;14.440;2023-04-21T22:32:19;98215.97;;;10.55;57.70
73016;BME280;61893;50.074;14.440;2023-04-21T22:35:00;98209.50;;;10.57;57.87
73016;BME280;61893;50.074;14.440;2023-04-21T22:37:53;98211.75;;;10.44;59.04
73016;BME280;61893;50.074;14.440;2023-04-21T22:40:19;98207.81;;;10.48;58.45
73016;BME280;61893;50.074;14.440;2023-04-21T22:45:20;98214.34;;;10.28;58.83
73016;BME280;61893;50.074;14.440;2023-04-21T22:47:47;98210.63;;;10.21;58.96
73016;BME280;61893;50.074;14.440;2023-04-21T22:50:13;98209.28;;;10.17;58.60
73016;BME280;61893;50.074;14.440;2023-04-21T22:52:40;98215.53;;;10.07;58.88
73016;BME280;61893;50.074;14.440;2023-04-21T22:55:07;98213.50;;;10.01;59.26
73016;BME280;61893;50.074;14.440;2023-04-21T22:57:58;98222.16;;;10.03;59.57
73016;BME280;61893;50.074;14.440;2023-04-21T23:00:42;98217.56;;;10.13;58.89
73016;BME280;61893;50.074;14.440;2023-04-21T23:03:14;98222.19;;;10.11;58.49
73016;BME280;61893;50.074;14.440;2023-04-21T23:05:42;98220.88;;;10.07;58.94
73016;BME280;61893;50.074;14.440;2023-04-21T23:08:08;98222.78;;;9.97;58.66
73016;BME280;61893;50.074;14.440;2023-04-21T23:10:34;98227.94;;;9.99;59.15
73016;BME280;61893;50.074;14.440;2023-04-21T23:13:00;98223.34;;;9.83;59.71
73016;BME280;61893;50.074;14.440;2023-04-21T23:15:26;98222.19;;;9.85;60.21
73016;BME280;61893;50.074;14.440;2023-04-21T23:18:06;98225.03;;;9.66;61.01
73016;BME280;61893;50.074;14.440;2023-04-21T23:20:35;98222.44;;;9.74;60.52
73016;BME280;61893;50.074;14.440;2023-04-21T23:23:01;98224.16;;;9.83;60.19
73016;BME280;61893;50.074;14.440;2023-04-21T23:25:37;98227.13;;;9.80;60.18
73016;BME280;61893;50.074;14.440;2023-04-21T23:28:17;98231.25;;;9.75;60.30
73016;BME280;61893;50.074;14.440;2023-04-21T23:30:49;98222.91;;;9.69;60.80
73016;BME280;61893;50.074;14.440;2023-04-21T23:36:17;98211.47;;;9.95;59.67
73016;BME280;61893;50.074;14.440;2023-04-21T23:39:15;98221.06;;;9.88;59.66
73016;BME280;61893;50.074;14.440;2023-04-21T23:44:30;98220.56;;;9.92;59.70
73016;BME280;61893;50.074;14.440;2023-04-21T23:47:17;98212.81;;;9.73;60.31
73016;BME280;61893;50.074;14.440;2023-04-21T23:50:08;98211.06;;;9.64;60.60
73016;BME280;61893;50.074;14.440;2023-04-21T23:53:09;98218.31;;;9.54;61.42
73016;BME280;61893;50.074;14.440;2023-04-21T23:58:15;98210.19;;;9.37;62.07
